Time;durP1;ratioP1;P1;durP2;ratioP2;P2;SDS_P1;SDS_P2;PMS_P1;PMS_P2;Temp;Humidity;BMP_temperature;BMP_pressure;BME280_temperature;BME280_humidity;BME280_pressure;Samples;Min_cycle;Max_cycle;Signal;HPM_P1;HPM_P2
2021/05/03 00:02:24;;;;;;;22.57;18.93;;;;;;;;;;5008619;28;20242;-88
2021/05/03 00:05:29;;;;;;;23.43;19.67;;;;;;;;;;5008483;28;20196;-88
2021/05/03 00:08:33;;;;;;;23.33;18.93;;;;;;;;;;5029768;28;20189;-88
2021/05/03 00:11:38;;;;;;;23.53;18.63;;;;;;;;;;5007723;28;20224;-88
2021/05/03 00:14:42;;;;;;;23.13;18.97;;;;;;;;;;5007103;28;20173;-88
2021/05/03 00:17:47;;;;;;;25.17;19.70;;;;;;;;;;5029840;28;20177;-88
2021/05/03 00:20:51;;;;;;;23.43;18.87;;;;;;;;;;5030837;28;20176;-88
2021/05/03 00:23:55;;;;;;;24.63;18.77;;;;;;;;;;5007210;28;20624;-88
2021/05/03 00:27:00;;;;;;;22.23;17.87;;;;;;;;;;5007547;28;20212;-88
2021/05/03 00:30:05;;;;;;;21.87;17.67;;;;;;;;;;5019097;28;20508;-88
2021/05/03 00:33:09;;;;;;;22.67;18.63;;;;;;;;;;5007129;28;20216;-88
2021/05/03 00:36:13;;;;;;;21.30;17.37;;;;;;;;;;5007520;28;20172;-88
2021/05/03 00:39:17;;;;;;;21.50;17.53;;;;;;;;;;5019454;28;20172;-87
2021/05/03 00:42:22;;;;;;;21.33;17.03;;;;;;;;;;5041838;28;20216;-88
2021/05/03 00:45:29;;;;;;;21.13;17.23;;;;;;;;;;5031243;28;20180;-87
2021/05/03 00:48:33;;;;;;;21.47;17.53;;;;;;;;;;5008981;28;20177;-88
2021/05/03 00:51:38;;;;;;;21.47;17.50;;;;;;;;;;5030673;28;20228;-88
2021/05/03 00:54:42;;;;;;;19.43;16.67;;;;;;;;;;5032265;28;20180;-87
2021/05/03 00:57:47;;;;;;;20.53;17.13;;;;;;;;;;5018606;28;20516;-88
2021/05/03 01:00:51;;;;;;;20.93;17.17;;;;;;;;;;5021237;28;20189;-87
2021/05/03 01:03:55;;;;;;;22.60;17.43;;;;;;;;;;5031125;28;20196;-88
2021/05/03 01:06:59;;;;;;;21.27;17.63;;;;;;;;;;5008034;28;20588;-88
2021/05/03 01:10:04;;;;;;;21.20;17.13;;;;;;;;;;5008251;28;20181;-87
2021/05/03 01:13:09;;;;;;;21.60;17.87;;;;;;;;;;5007418;28;20216;-88
2021/05/03 01:16:13;;;;;;;24.40;17.77;;;;;;;;;;5019662;28;20185;-88
2021/05/03 01:19:20;;;;;;;21.50;17.40;;;;;;;;;;5019303;28;20176;-88
2021/05/03 01:22:25;;;;;;;21.30;17.87;;;;;;;;;;5007508;28;20216;-88
2021/05/03 01:25:32;;;;;;;19.60;17.13;;;;;;;;;;5006701;28;20177;-88
2021/05/03 01:28:36;;;;;;;22.67;17.27;;;;;;;;;;5007120;28;20676;-88
2021/05/03 01:31:41;;;;;;;21.53;17.83;;;;;;;;;;5018584;28;20212;-88
2021/05/03 01:34:45;;;;;;;21.00;17.00;;;;;;;;;;5018234;28;20197;-88
2021/05/03 01:37:51;;;;;;;21.00;16.90;;;;;;;;;;5007674;28;20189;-88
2021/05/03 01:40:55;;;;;;;20.93;17.20;;;;;;;;;;5007181;28;20181;-88
2021/05/03 01:44:00;;;;;;;19.20;17.03;;;;;;;;;;5018925;28;20177;-88
2021/05/03 01:47:05;;;;;;;18.93;16.50;;;;;;;;;;5040616;28;20204;-88
2021/05/03 01:50:15;;;;;;;19.80;17.13;;;;;;;;;;5018602;28;20181;-89
2021/05/03 01:53:20;;;;;;;20.70;16.53;;;;;;;;;;5017747;28;20228;-88
2021/05/03 01:56:25;;;;;;;18.77;15.60;;;;;;;;;;5006963;28;20521;-88
2021/05/03 01:59:34;;;;;;;19.87;16.63;;;;;;;;;;5017696;28;20177;-88
2021/05/03 02:02:38;;;;;;;18.70;15.23;;;;;;;;;;5018120;28;20212;-88
2021/05/03 02:05:43;;;;;;;18.80;15.40;;;;;;;;;;5019055;28;20181;-88
2021/05/03 02:09:11;;;;;;;18.87;15.47;;;;;;;;;;5023612;28;20177;-88
2021/05/03 02:12:16;;;;;;;20.07;16.77;;;;;;;;;;5041331;28;20220;-88
2021/05/03 02:15:20;;;;;;;20.07;16.83;;;;;;;;;;4994474;28;20197;-88
2021/05/03 02:18:24;;;;;;;19.67;17.00;;;;;;;;;;5009117;28;20535;-88
2021/05/03 02:21:28;;;;;;;21.17;16.57;;;;;;;;;;5020761;28;20548;-88
2021/05/03 02:24:33;;;;;;;19.63;15.73;;;;;;;;;;5030748;28;20197;-88
2021/05/03 02:27:37;;;;;;;20.83;16.43;;;;;;;;;;5020370;28;21014;-88
2021/05/03 02:30:42;;;;;;;19.77;15.43;;;;;;;;;;5009849;28;20204;-88
2021/05/03 02:33:46;;;;;;;22.33;16.50;;;;;;;;;;5008216;28;20943;-88
2021/05/03 02:36:55;;;;;;;20.37;15.93;;;;;;;;;;5042714;28;20614;-88
2021/05/03 02:40:00;;;;;;;17.40;14.73;;;;;;;;;;5009564;28;20544;-88
2021/05/03 02:43:05;;;;;;;20.10;15.07;;;;;;;;;;5032203;28;20626;-88
2021/05/03 02:46:10;;;;;;;17.97;14.30;;;;;;;;;;5032032;28;20540;-88
2021/05/03 02:49:15;;;;;;;17.33;15.10;;;;;;;;;;5009556;28;20543;-88
2021/05/03 02:52:19;;;;;;;15.37;13.10;;;;;;;;;;5031581;28;20225;-88
2021/05/03 02:55:23;;;;;;;20.13;15.27;;;;;;;;;;5020038;28;20544;-88
2021/05/03 02:58:27;;;;;;;18.37;15.13;;;;;;;;;;5019931;28;20540;-88
2021/05/03 03:01:31;;;;;;;18.50;14.53;;;;;;;;;;5030847;28;20177;-88
2021/05/03 03:04:36;;;;;;;17.60;14.73;;;;;;;;;;5019844;28;20177;-88
2021/05/03 03:07:40;;;;;;;21.13;15.60;;;;;;;;;;5008483;28;20953;-88
2021/05/03 03:10:44;;;;;;;18.70;15.30;;;;;;;;;;5031240;28;20544;-88
2021/05/03 03:13:49;;;;;;;18.80;14.40;;;;;;;;;;5008218;28;20552;-88
2021/05/03 03:16:53;;;;;;;16.70;14.10;;;;;;;;;;5020779;28;20580;-88
2021/05/03 03:19:57;;;;;;;16.90;14.33;;;;;;;;;;5008303;28;20540;-88
2021/05/03 03:23:02;;;;;;;19.80;15.67;;;;;;;;;;5030198;28;20623;-88
2021/05/03 03:26:07;;;;;;;20.30;15.30;;;;;;;;;;5029625;28;20544;-88
2021/05/03 03:29:10;;;;;;;19.73;15.40;;;;;;;;;;5008327;28;20659;-87
2021/05/03 03:32:15;;;;;;;19.00;15.10;;;;;;;;;;4998827;28;20634;-88
2021/05/03 03:35:20;;;;;;;20.33;15.57;;;;;;;;;;5022040;28;21016;-88
2021/05/03 03:38:24;;;;;;;18.93;16.23;;;;;;;;;;5010547;28;20603;-88
2021/05/03 03:41:29;;;;;;;19.80;15.43;;;;;;;;;;4999621;28;20934;-88
2021/05/03 03:44:33;;;;;;;20.60;16.57;;;;;;;;;;4996797;28;20940;-88
2021/05/03 03:47:37;;;;;;;19.10;15.40;;;;;;;;;;5000234;28;21177;-88
2021/05/03 03:50:42;;;;;;;19.33;15.83;;;;;;;;;;5022589;28;20576;-88
2021/05/03 03:53:46;;;;;;;20.53;16.63;;;;;;;;;;5027333;28;20611;-88
2021/05/03 03:56:50;;;;;;;18.83;15.63;;;;;;;;;;5002105;28;20604;-88
2021/05/03 03:59:56;;;;;;;18.30;15.10;;;;;;;;;;5003000;28;20615;-88
2021/05/03 04:03:05;;;;;;;20.40;16.10;;;;;;;;;;5021013;28;20754;-87
2021/05/03 04:06:22;;;;;;;21.03;16.60;;;;;;;;;;5001623;28;20596;-88
2021/05/03 04:22:43;;;;;;;19.77;15.03;;;;;;;;;;4993981;28;20922;-88
2021/05/03 04:25:48;;;;;;;18.43;15.60;;;;;;;;;;4972076;28;20546;-88
2021/05/03 04:28:54;;;;;;;19.73;16.17;;;;;;;;;;4971868;28;20598;-88
2021/05/03 04:31:58;;;;;;;19.93;15.40;;;;;;;;;;4971727;28;20870;-88
2021/05/03 04:35:03;;;;;;;20.83;16.40;;;;;;;;;;4982216;28;21154;-88
2021/05/03 04:38:07;;;;;;;20.00;16.33;;;;;;;;;;4960977;28;20601;-85
2021/05/03 04:41:12;;;;;;;19.20;15.63;;;;;;;;;;4971493;28;20632;-87
2021/05/03 04:44:16;;;;;;;21.17;16.17;;;;;;;;;;4982692;28;20546;-87
2021/05/03 04:47:20;;;;;;;19.13;15.93;;;;;;;;;;4982149;28;20897;-87
2021/05/03 04:50:24;;;;;;;21.43;16.63;;;;;;;;;;4982363;28;20613;-87
2021/05/03 04:53:28;;;;;;;19.60;16.27;;;;;;;;;;4971189;28;20597;-87
2021/05/03 04:56:33;;;;;;;22.37;16.77;;;;;;;;;;4982198;28;20605;-87
2021/05/03 04:59:37;;;;;;;17.90;15.20;;;;;;;;;;4982458;28;20541;-87
2021/05/03 05:02:41;;;;;;;25.20;21.50;;;;;;;;;;4982820;28;20549;-87
2021/05/03 05:05:48;;;;;;;18.27;15.87;;;;;;;;;;4982369;28;20182;-87
2021/05/03 05:08:52;;;;;;;18.03;15.53;;;;;;;;;;4993782;28;20569;-88
2021/05/03 05:11:57;;;;;;;18.00;14.43;;;;;;;;;;4982032;28;20198;-88
2021/05/03 05:15:01;;;;;;;18.17;14.37;;;;;;;;;;4982082;28;20186;-85
2021/05/03 05:18:08;;;;;;;18.13;14.43;;;;;;;;;;4983127;28;20183;-83
2021/05/03 05:21:12;;;;;;;17.63;14.67;;;;;;;;;;4985426;28;20231;-83
2021/05/03 05:24:16;;;;;;;17.17;15.07;;;;;;;;;;4973728;28;20202;-83
2021/05/03 05:27:21;;;;;;;19.37;14.57;;;;;;;;;;4974491;28;20199;-83
2021/05/03 05:30:25;;;;;;;15.60;13.63;;;;;;;;;;4973658;28;20214;-83
2021/05/03 05:33:29;;;;;;;16.47;13.67;;;;;;;;;;4985784;28;20179;-83
2021/05/03 05:36:33;;;;;;;17.20;14.30;;;;;;;;;;4993419;28;20186;-83
2021/05/03 05:39:38;;;;;;;18.77;15.80;;;;;;;;;;4982771;28;20202;-83
2021/05/03 05:42:42;;;;;;;18.10;14.80;;;;;;;;;;4993389;28;20538;-82
2021/05/03 05:45:46;;;;;;;16.90;14.47;;;;;;;;;;4994047;28;20182;-82
2021/05/03 05:48:51;;;;;;;16.40;13.70;;;;;;;;;;4985905;28;20549;-82
2021/05/03 05:51:55;;;;;;;18.53;15.27;;;;;;;;;;4987266;28;20202;-82
2021/05/03 05:54:59;;;;;;;17.33;14.23;;;;;;;;;;4985941;28;20182;-82
2021/05/03 05:58:03;;;;;;;16.33;13.77;;;;;;;;;;4997828;28;20178;-82
2021/05/03 06:01:07;;;;;;;16.70;13.47;;;;;;;;;;4985411;28;20226;-82
2021/05/03 06:04:12;;;;;;;15.67;12.97;;;;;;;;;;4974750;28;20179;-82
2021/05/03 06:07:15;;;;;;;14.97;12.80;;;;;;;;;;4985633;28;20178;-82
2021/05/03 06:10:20;;;;;;;20.00;17.13;;;;;;;;;;4974695;28;20226;-82
2021/05/03 06:13:24;;;;;;;16.93;13.90;;;;;;;;;;4985618;28;20182;-82
2021/05/03 06:16:29;;;;;;;15.60;12.43;;;;;;;;;;4963888;28;20179;-82
2021/05/03 06:19:33;;;;;;;14.43;12.03;;;;;;;;;;4973893;28;20198;-82
2021/05/03 06:22:37;;;;;;;13.03;11.43;;;;;;;;;;4965975;28;20178;-82
2021/05/03 06:25:43;;;;;;;12.80;11.17;;;;;;;;;;4966153;28;20202;-82
2021/05/03 06:28:47;;;;;;;14.53;11.63;;;;;;;;;;4965610;28;20218;-82
2021/05/03 06:31:53;;;;;;;13.23;10.67;;;;;;;;;;4980566;28;20203;-82
2021/05/03 06:34:57;;;;;;;14.20;11.57;;;;;;;;;;4978424;28;20187;-82
2021/05/03 06:38:05;;;;;;;12.70;10.97;;;;;;;;;;4966065;28;20634;-82
2021/05/03 06:41:09;;;;;;;13.53;10.07;;;;;;;;;;4954668;28;20546;-82
2021/05/03 06:44:13;;;;;;;14.67;11.50;;;;;;;;;;4976855;28;20187;-82
2021/05/03 06:47:18;;;;;;;14.23;10.17;;;;;;;;;;4981978;28;20201;-82
2021/05/03 06:50:23;;;;;;;13.20;10.27;;;;;;;;;;4996374;28;20546;-82
2021/05/03 06:53:27;;;;;;;12.77;10.40;;;;;;;;;;4996894;28;20174;-82
2021/05/03 06:56:31;;;;;;;12.43;9.97;;;;;;;;;;4996375;28;20641;-82
2021/05/03 06:59:35;;;;;;;14.30;10.63;;;;;;;;;;4974382;28;20186;-82
2021/05/03 07:02:40;;;;;;;11.87;10.20;;;;;;;;;;4985528;28;20174;-82
2021/05/03 07:05:45;;;;;;;11.50;9.53;;;;;;;;;;4996581;28;20510;-82
2021/05/03 07:08:50;;;;;;;11.77;9.40;;;;;;;;;;4996081;28;20673;-82
2021/05/03 07:11:56;;;;;;;11.20;9.50;;;;;;;;;;4993050;28;20190;-82
2021/05/03 07:15:00;;;;;;;16.10;9.97;;;;;;;;;;4997402;28;20182;-82
2021/05/03 07:18:05;;;;;;;12.37;9.57;;;;;;;;;;4997524;28;20198;-82
2021/05/03 07:21:09;;;;;;;10.97;9.70;;;;;;;;;;4985926;28;20217;-82
2021/05/03 07:24:14;;;;;;;10.90;8.97;;;;;;;;;;4997056;28;20182;-82
2021/05/03 07:27:18;;;;;;;10.20;9.03;;;;;;;;;;4985394;28;20191;-82
2021/05/03 07:30:22;;;;;;;12.10;9.50;;;;;;;;;;4985930;28;20233;-82
2021/05/03 07:33:27;;;;;;;10.20;8.63;;;;;;;;;;4984380;28;20547;-82
2021/05/03 07:36:31;;;;;;;10.27;8.97;;;;;;;;;;4985011;28;20182;-82
2021/05/03 07:39:35;;;;;;;9.57;8.57;;;;;;;;;;4996451;28;20178;-83
2021/05/03 07:42:40;;;;;;;11.33;8.60;;;;;;;;;;4973344;28;20182;-82
2021/05/03 07:45:44;;;;;;;9.97;8.40;;;;;;;;;;4972744;28;20197;-82
2021/05/03 07:48:48;;;;;;;11.63;8.50;;;;;;;;;;4995403;28;20222;-83
2021/05/03 07:51:52;;;;;;;11.00;9.03;;;;;;;;;;4973529;28;20556;-82
2021/05/03 07:54:58;;;;;;;12.20;8.50;;;;;;;;;;4994901;28;20636;-83
2021/05/03 07:58:03;;;;;;;10.97;7.50;;;;;;;;;;4984470;28;20186;-83
2021/05/03 08:01:08;;;;;;;8.80;7.77;;;;;;;;;;4995426;28;20218;-83
2021/05/03 08:04:11;;;;;;;9.57;7.27;;;;;;;;;;4984667;28;20186;-83
2021/05/03 08:07:16;;;;;;;8.63;6.30;;;;;;;;;;4984468;28;20205;-82
2021/05/03 08:10:21;;;;;;;5.43;4.33;;;;;;;;;;4982979;28;20236;-82
2021/05/03 08:13:29;;;;;;;7.63;4.10;;;;;;;;;;4995346;28;20202;-83
2021/05/03 08:16:37;;;;;;;5.43;3.70;;;;;;;;;;4995433;28;20174;-83
2021/05/03 08:19:41;;;;;;;5.50;3.90;;;;;;;;;;4983857;28;20178;-83
2021/05/03 08:22:46;;;;;;;6.37;5.23;;;;;;;;;;4994757;28;20634;-83
2021/05/03 08:25:52;;;;;;;6.10;4.60;;;;;;;;;;4983207;28;20182;-83
2021/05/03 08:28:57;;;;;;;10.00;5.90;;;;;;;;;;4994475;28;20672;-83
2021/05/03 08:32:02;;;;;;;6.93;5.40;;;;;;;;;;4983344;28;20193;-83
2021/05/03 08:35:07;;;;;;;8.87;5.53;;;;;;;;;;4983480;28;20202;-83
2021/05/03 08:38:14;;;;;;;8.43;4.70;;;;;;;;;;4994765;28;20202;-83
2021/05/03 08:41:18;;;;;;;6.07;3.97;;;;;;;;;;4983140;28;20214;-83
2021/05/03 08:44:23;;;;;;;6.20;4.47;;;;;;;;;;4983201;28;20182;-83
2021/05/03 08:47:33;;;;;;;6.70;5.07;;;;;;;;;;4966654;28;20190;-84
2021/05/03 08:50:53;;;;;;;7.20;5.00;;;;;;;;;;4982593;28;20234;-81
2021/05/03 08:54:05;;;;;;;7.33;5.40;;;;;;;;;;4971434;28;20205;-81
2021/05/03 08:57:12;;;;;;;12.03;7.53;;;;;;;;;;4982768;28;20194;-81
2021/05/03 09:00:18;;;;;;;7.60;6.67;;;;;;;;;;4982769;28;20214;-81
2021/05/03 09:03:23;;;;;;;9.07;7.10;;;;;;;;;;4983437;28;20507;-81
2021/05/03 09:06:27;;;;;;;8.90;6.07;;;;;;;;;;4982693;28;20178;-81
2021/05/03 09:09:33;;;;;;;7.93;6.37;;;;;;;;;;4993676;28;20264;-81
2021/05/03 09:12:37;;;;;;;6.67;5.40;;;;;;;;;;4982515;28;20190;-81
2021/05/03 09:15:44;;;;;;;9.47;6.23;;;;;;;;;;4971138;28;20186;-81
2021/05/03 09:18:51;;;;;;;8.17;5.63;;;;;;;;;;4971563;28;20178;-81
2021/05/03 09:21:56;;;;;;;9.07;6.57;;;;;;;;;;4974328;28;20182;-81
2021/05/03 09:25:14;;;;;;;8.00;6.10;;;;;;;;;;4986268;28;20174;-81
2021/05/03 09:28:28;;;;;;;10.03;5.83;;;;;;;;;;4998402;28;20182;-81
2021/05/03 09:31:33;;;;;;;9.67;5.30;;;;;;;;;;4997762;28;20205;-81
2021/05/03 09:34:40;;;;;;;7.30;5.73;;;;;;;;;;4987019;28;20202;-82
2021/05/03 09:37:45;;;;;;;7.67;5.87;;;;;;;;;;5000893;28;20186;-82
2021/05/03 09:41:08;;;;;;;6.20;5.60;;;;;;;;;;5001815;28;20210;-82
2021/05/03 09:44:12;;;;;;;6.00;5.30;;;;;;;;;;4989586;28;20187;-81
2021/05/03 09:47:16;;;;;;;6.23;5.33;;;;;;;;;;4989866;28;20186;-81
2021/05/03 09:50:25;;;;;;;6.90;4.80;;;;;;;;;;4978471;28;20225;-81
2021/05/03 09:53:29;;;;;;;4.57;3.83;;;;;;;;;;4967597;28;20182;-81
2021/05/03 09:56:55;;;;;;;4.27;3.87;;;;;;;;;;4988295;28;20209;-81
2021/05/03 10:00:01;;;;;;;6.20;4.30;;;;;;;;;;4992657;28;20218;-81
2021/05/03 10:03:33;;;;;;;6.57;4.10;;;;;;;;;;4986973;28;20194;-88
2021/05/03 10:06:38;;;;;;;5.93;4.77;;;;;;;;;;4986119;28;20491;-90
2021/05/03 10:09:45;;;;;;;4.77;4.27;;;;;;;;;;4983417;28;20704;-89
2021/05/03 10:12:51;;;;;;;5.43;4.23;;;;;;;;;;4982964;28;20186;-90
2021/05/03 10:15:58;;;;;;;8.67;4.73;;;;;;;;;;4982805;28;20186;-91
2021/05/03 10:19:05;;;;;;;5.17;4.50;;;;;;;;;;4971199;28;20179;-89
2021/05/03 10:22:17;;;;;;;4.93;4.43;;;;;;;;;;4995749;28;20214;-88
2021/05/03 10:25:22;;;;;;;4.80;4.30;;;;;;;;;;4973746;28;20201;-89
2021/05/03 10:28:28;;;;;;;6.40;5.27;;;;;;;;;;4974102;28;20214;-89
2021/05/03 10:32:02;;;;;;;6.80;4.60;;;;;;;;;;4985848;28;20234;-89
2021/05/03 10:35:24;;;;;;;13.70;11.07;;;;;;;;;;4974340;28;20202;-89
2021/05/03 10:38:41;;;;;;;4.97;4.47;;;;;;;;;;4984649;28;20656;-88
2021/05/03 10:42:10;;;;;;;7.47;5.07;;;;;;;;;;4986328;28;20214;-88
2021/05/03 10:45:17;;;;;;;5.47;4.53;;;;;;;;;;4981806;28;20601;-89
2021/05/03 10:48:41;;;;;;;5.67;4.57;;;;;;;;;;4940265;28;20187;-88
2021/05/03 10:54:58;;;;;;;5.20;4.50;;;;;;;;;;4981344;28;20186;-88
2021/05/03 10:58:02;;;;;;;5.03;4.13;;;;;;;;;;4970157;28;20178;-89
2021/05/03 11:01:17;;;;;;;5.73;4.83;;;;;;;;;;4982231;28;20226;-89
2021/05/03 11:04:29;;;;;;;5.00;4.37;;;;;;;;;;5018065;23;20227;-86
2021/05/03 11:07:34;;;;;;;9.97;5.37;;;;;;;;;;5026663;28;20196;-82
2021/05/03 11:11:00;;;;;;;23.77;6.00;;;;;;;;;;5043309;28;20220;-86
2021/05/03 11:14:09;;;;;;;7.67;5.57;;;;;;;;;;5031717;28;20188;-85
2021/05/03 11:17:15;;;;;;;7.07;5.97;;;;;;;;;;5017856;28;20204;-85
2021/05/03 11:20:19;;;;;;;7.37;5.50;;;;;;;;;;5023811;28;20185;-85
2021/05/03 11:23:30;;;;;;;7.57;5.90;;;;;;;;;;5012464;28;20647;-85
2021/05/03 11:26:44;;;;;;;5.70;4.70;;;;;;;;;;5012319;28;20177;-84
2021/05/03 11:33:09;;;;;;;5.37;4.80;;;;;;;;;;5024239;28;20528;-84
2021/05/03 11:36:23;;;;;;;6.03;4.80;;;;;;;;;;5011726;28;20391;-85
2021/05/03 11:45:44;;;;;;;5.90;4.47;;;;;;;;;;5023246;28;20216;-85
2021/05/03 11:48:48;;;;;;;8.47;4.77;;;;;;;;;;5011655;28;20693;-85
2021/05/03 11:51:57;;;;;;;8.50;5.73;;;;;;;;;;5011469;28;20204;-85
2021/05/03 11:55:09;;;;;;;6.73;4.47;;;;;;;;;;5011467;28;20217;-85
2021/05/03 11:58:14;;;;;;;4.83;4.10;;;;;;;;;;5023190;28;20185;-86
2021/05/03 12:01:20;;;;;;;6.63;4.60;;;;;;;;;;5024061;28;20177;-86
2021/05/03 12:04:34;;;;;;;5.17;4.50;;;;;;;;;;5031486;28;20215;-85
2021/05/03 12:07:38;;;;;;;4.67;4.23;;;;;;;;;;5031462;28;20520;-85
2021/05/03 12:10:42;;;;;;;5.53;4.63;;;;;;;;;;5020768;28;20223;-86
2021/05/03 12:13:51;;;;;;;5.97;4.30;;;;;;;;;;5022513;28;20196;-87
2021/05/03 12:16:56;;;;;;;5.80;4.53;;;;;;;;;;5022333;28;20196;-86
2021/05/03 12:20:05;;;;;;;4.93;4.40;;;;;;;;;;5022154;28;20192;-86
2021/05/03 12:23:10;;;;;;;5.33;4.30;;;;;;;;;;4992939;28;20641;-86
2021/05/03 12:26:14;;;;;;;5.80;4.53;;;;;;;;;;5006072;28;20216;-85
2021/05/03 12:29:19;;;;;;;5.33;3.67;;;;;;;;;;5006480;28;20193;-86
2021/05/03 12:32:30;;;;;;;4.80;3.80;;;;;;;;;;5005749;28;20181;-86
2021/05/03 12:35:35;;;;;;;4.17;3.67;;;;;;;;;;4994397;28;20218;-87
2021/05/03 12:38:39;;;;;;;5.03;3.67;;;;;;;;;;4995564;28;20177;-86
2021/05/03 12:41:43;;;;;;;4.63;4.13;;;;;;;;;;5003730;28;20185;-86
2021/05/03 12:44:56;;;;;;;6.53;3.60;;;;;;;;;;5005939;28;20217;-86
2021/05/03 12:51:22;;;;;;;10.87;9.73;;;;;;;;;;5027276;28;20217;-86
2021/05/03 12:54:52;;;;;;;5.17;4.63;;;;;;;;;;5026821;28;20216;-87
2021/05/03 12:58:09;;;;;;;5.00;4.50;;;;;;;;;;5027592;28;20185;-86
2021/05/03 13:01:50;;;;;;;4.57;4.17;;;;;;;;;;5025848;28;20185;-85
2021/05/03 13:05:23;;;;;;;4.30;3.47;;;;;;;;;;5024155;28;20224;-86
2021/05/03 13:25:35;;;;;;;4.10;3.70;;;;;;;;;;5022048;28;20220;-85
2021/05/03 13:29:00;;;;;;;4.53;3.53;;;;;;;;;;5010950;28;20185;-85
2021/05/03 13:32:05;;;;;;;4.97;3.80;;;;;;;;;;5021917;28;20216;-85
2021/05/03 13:35:09;;;;;;;4.60;3.43;;;;;;;;;;5021866;28;20212;-85
2021/05/03 13:38:13;;;;;;;3.80;3.40;;;;;;;;;;5021929;28;20177;-86
2021/05/03 13:41:18;;;;;;;4.23;3.00;;;;;;;;;;5030443;28;20192;-85
2021/05/03 13:44:23;;;;;;;3.40;2.70;;;;;;;;;;5000215;28;20220;-86
2021/05/03 13:47:27;;;;;;;3.83;3.20;;;;;;;;;;5010637;28;20185;-85
2021/05/03 13:50:31;;;;;;;3.37;2.30;;;;;;;;;;5029456;28;20177;-85
2021/05/03 13:53:37;;;;;;;8.60;2.77;;;;;;;;;;5010233;28;20181;-85
2021/05/03 13:56:42;;;;;;;4.07;3.30;;;;;;;;;;4990972;28;20177;-85
2021/05/03 13:59:46;;;;;;;3.00;2.67;;;;;;;;;;5001534;28;20178;-85
2021/05/03 14:02:50;;;;;;;3.17;2.57;;;;;;;;;;5024526;28;20651;-88
2021/05/03 14:05:55;;;;;;;3.87;2.90;;;;;;;;;;5029218;28;20227;-88
2021/05/03 14:08:59;;;;;;;4.70;2.73;;;;;;;;;;5017256;28;20200;-85
2021/05/03 14:12:04;;;;;;;4.23;2.60;;;;;;;;;;5024726;28;20205;-88
2021/05/03 14:15:09;;;;;;;4.83;2.77;;;;;;;;;;5011176;28;20571;-87
2021/05/03 14:18:13;;;;;;;5.80;2.60;;;;;;;;;;5021770;28;20176;-89
2021/05/03 14:21:20;;;;;;;5.10;2.80;;;;;;;;;;5042021;28;20188;-88
2021/05/03 14:24:24;;;;;;;4.07;2.63;;;;;;;;;;5013241;28;20224;-88
2021/05/03 14:27:29;;;;;;;3.93;3.00;;;;;;;;;;5013183;28;20181;-88
2021/05/03 14:30:43;;;;;;;5.13;2.63;;;;;;;;;;5012895;28;20197;-88
2021/05/03 14:34:04;;;;;;;3.07;2.77;;;;;;;;;;5001663;28;20181;-88
2021/05/03 14:37:08;;;;;;;4.43;2.37;;;;;;;;;;5002421;28;20178;-86
2021/05/03 14:40:13;;;;;;;4.30;2.73;;;;;;;;;;5027901;28;20189;-86
2021/05/03 14:43:17;;;;;;;4.43;3.37;;;;;;;;;;5007024;28;20177;-86
2021/05/03 14:56:13;;;;;;;9.83;8.87;;;;;;;;;;5029265;28;20564;-86
2021/05/03 14:59:18;;;;;;;5.63;5.03;;;;;;;;;;5017911;28;20197;-87
2021/05/03 15:02:22;;;;;;;5.80;5.20;;;;;;;;;;5018394;28;20169;-86
2021/05/03 15:05:26;;;;;;;9.57;5.37;;;;;;;;;;5028754;28;20224;-86
2021/05/03 15:08:30;;;;;;;6.43;5.73;;;;;;;;;;5015653;28;20181;-86
2021/05/03 15:11:35;;;;;;;4.10;3.70;;;;;;;;;;5004369;28;20212;-86
2021/05/03 15:18:00;;;;;;;7.87;4.47;;;;;;;;;;5040176;28;20172;-86
2021/05/03 15:24:29;;;;;;;4.87;4.30;;;;;;;;;;5025961;28;20217;-88
2021/05/03 15:34:00;;;;;;;6.90;4.30;;;;;;;;;;5053547;28;20196;-86
2021/05/03 15:37:04;;;;;;;7.20;4.23;;;;;;;;;;5023583;28;20200;-87
2021/05/03 15:40:09;;;;;;;5.33;4.23;;;;;;;;;;5012047;28;20185;-87
2021/05/03 15:43:19;;;;;;;4.17;3.73;;;;;;;;;;5029590;28;20184;-86
2021/05/03 15:46:23;;;;;;;5.27;4.67;;;;;;;;;;5018731;28;20189;-87
2021/05/03 15:49:27;;;;;;;5.30;3.57;;;;;;;;;;5005970;28;20193;-86
2021/05/03 15:52:34;;;;;;;5.23;4.73;;;;;;;;;;5006898;28;20679;-86
2021/05/03 15:55:39;;;;;;;4.90;4.40;;;;;;;;;;5006086;28;20212;-86
2021/05/03 15:58:45;;;;;;;6.57;3.90;;;;;;;;;;5002866;28;20177;-86
2021/05/03 16:01:50;;;;;;;6.97;3.83;;;;;;;;;;5029263;28;20183;-86
2021/05/03 16:04:55;;;;;;;4.97;3.80;;;;;;;;;;5024389;28;20227;-86
2021/05/03 16:07:59;;;;;;;4.83;3.37;;;;;;;;;;5029124;28;20189;-86
2021/05/03 16:11:03;;;;;;;4.70;3.93;;;;;;;;;;5001750;28;20184;-86
2021/05/03 16:14:08;;;;;;;4.77;3.87;;;;;;;;;;5012357;28;20196;-86
2021/05/03 16:17:12;;;;;;;4.50;3.63;;;;;;;;;;5012611;28;20208;-86
2021/05/03 16:20:17;;;;;;;5.00;3.77;;;;;;;;;;5011552;28;20181;-87
2021/05/03 16:23:21;;;;;;;3.83;3.53;;;;;;;;;;5035680;28;20177;-86
2021/05/03 16:26:26;;;;;;;7.97;4.00;;;;;;;;;;5011672;28;20181;-86
2021/05/03 16:29:30;;;;;;;5.47;3.47;;;;;;;;;;5034438;28;20184;-86
2021/05/03 16:32:35;;;;;;;4.10;3.53;;;;;;;;;;5032018;28;20208;-86
2021/05/03 16:35:40;;;;;;;4.67;3.40;;;;;;;;;;5020529;28;20212;-86
2021/05/03 16:38:44;;;;;;;4.70;3.63;;;;;;;;;;5019395;28;20192;-85
2021/05/03 16:41:48;;;;;;;5.60;3.80;;;;;;;;;;4996848;28;20186;-86
2021/05/03 16:44:53;;;;;;;7.27;3.67;;;;;;;;;;5038254;28;20219;-86
2021/05/03 16:47:58;;;;;;;5.00;2.87;;;;;;;;;;5012896;28;20189;-87
2021/05/03 16:51:02;;;;;;;8.13;3.83;;;;;;;;;;5025440;28;20169;-86
2021/05/03 16:54:06;;;;;;;6.73;3.73;;;;;;;;;;5023998;28;20172;-86
2021/05/03 16:57:10;;;;;;;6.57;3.57;;;;;;;;;;5025544;28;20196;-86
2021/05/03 17:00:14;;;;;;;3.47;3.17;;;;;;;;;;5024203;28;20177;-86
2021/05/03 17:03:19;;;;;;;3.50;3.03;;;;;;;;;;5002641;28;20196;-86
2021/05/03 17:06:23;;;;;;;5.70;3.97;;;;;;;;;;5012509;28;20188;-86
2021/05/03 17:09:27;;;;;;;4.03;3.63;;;;;;;;;;5012392;28;20192;-87
2021/05/03 17:12:32;;;;;;;4.37;3.70;;;;;;;;;;5012529;28;20221;-86
2021/05/03 17:15:36;;;;;;;3.47;3.17;;;;;;;;;;4981263;28;20696;-86
2021/05/03 17:18:40;;;;;;;4.37;3.10;;;;;;;;;;4992046;28;20185;-86
2021/05/03 17:21:45;;;;;;;5.77;3.10;;;;;;;;;;5037622;28;20188;-85
2021/05/03 17:24:49;;;;;;;3.57;2.93;;;;;;;;;;5039528;28;20562;-86
2021/05/03 17:27:54;;;;;;;4.53;3.70;;;;;;;;;;5039295;28;20180;-85
2021/05/03 17:30:58;;;;;;;6.40;3.60;;;;;;;;;;5016606;28;20192;-86
2021/05/03 17:34:03;;;;;;;6.60;3.60;;;;;;;;;;5039000;28;20177;-85
2021/05/03 17:37:08;;;;;;;5.40;3.50;;;;;;;;;;5027933;28;20177;-84
2021/05/03 17:40:12;;;;;;;3.17;2.80;;;;;;;;;;5039624;28;20176;-85
2021/05/03 17:43:17;;;;;;;4.03;3.03;;;;;;;;;;5019826;28;20496;-85
2021/05/03 17:46:22;;;;;;;6.47;4.33;;;;;;;;;;5043083;28;20192;-85
2021/05/03 17:49:27;;;;;;;3.87;3.47;;;;;;;;;;5020542;28;20177;-85
2021/05/03 17:52:31;;;;;;;5.67;4.37;;;;;;;;;;5031664;28;20211;-85
2021/05/03 17:55:35;;;;;;;5.73;4.80;;;;;;;;;;4980927;28;20229;-85
2021/05/03 17:58:42;;;;;;;5.80;5.03;;;;;;;;;;4992134;28;20182;-86
2021/05/03 18:01:46;;;;;;;8.93;6.50;;;;;;;;;;5024671;28;20196;-86
2021/05/03 18:04:50;;;;;;;12.87;9.27;;;;;;;;;;5001160;28;20538;-85
2021/05/03 18:07:55;;;;;;;7.10;5.87;;;;;;;;;;5003222;28;20178;-85
2021/05/03 18:11:00;;;;;;;3.80;3.50;;;;;;;;;;5003263;28;20644;-85
2021/05/03 18:14:05;;;;;;;4.77;3.70;;;;;;;;;;5004147;28;20184;-85
2021/05/03 18:17:09;;;;;;;2.63;2.23;;;;;;;;;;5007767;28;20202;-85
2021/05/03 18:20:14;;;;;;;4.70;2.90;;;;;;;;;;5019954;28;20196;-85
2021/05/03 18:23:18;;;;;;;2.97;2.50;;;;;;;;;;5000045;28;20176;-85
2021/05/03 18:26:23;;;;;;;3.80;2.60;;;;;;;;;;5010050;28;20200;-86
2021/05/03 18:29:29;;;;;;;4.93;2.60;;;;;;;;;;5020313;28;20184;-85
2021/05/03 18:32:37;;;;;;;3.27;2.97;;;;;;;;;;4997878;28;20536;-86
2021/05/03 18:35:41;;;;;;;3.70;2.80;;;;;;;;;;4989354;28;20217;-86
2021/05/03 18:38:47;;;;;;;3.37;2.70;;;;;;;;;;5001060;28;20181;-86
2021/05/03 18:41:52;;;;;;;4.23;3.10;;;;;;;;;;5019169;28;20204;-86
2021/05/03 18:44:56;;;;;;;4.47;2.63;;;;;;;;;;5026923;28;20216;-86
2021/05/03 18:48:05;;;;;;;3.63;3.00;;;;;;;;;;5013845;28;20196;-86
2021/05/03 18:51:10;;;;;;;2.90;2.70;;;;;;;;;;5024558;28;20204;-85
2021/05/03 18:54:15;;;;;;;3.37;3.07;;;;;;;;;;5015799;28;20227;-86
2021/05/03 18:57:19;;;;;;;4.30;3.23;;;;;;;;;;4993565;28;20193;-86
2021/05/03 19:00:23;;;;;;;4.40;3.23;;;;;;;;;;5007561;28;20205;-85
2021/05/03 19:03:27;;;;;;;3.47;3.10;;;;;;;;;;5017288;28;20180;-85
2021/05/03 19:06:33;;;;;;;3.90;3.30;;;;;;;;;;5012002;28;20651;-86
2021/05/03 19:09:38;;;;;;;4.77;3.47;;;;;;;;;;5007973;28;20196;-86
2021/05/03 19:12:42;;;;;;;5.43;3.37;;;;;;;;;;4997184;28;20204;-85
2021/05/03 19:15:46;;;;;;;3.67;2.80;;;;;;;;;;4998910;28;20212;-85
2021/05/03 19:18:50;;;;;;;4.67;3.40;;;;;;;;;;5020234;28;20192;-85
2021/05/03 19:21:56;;;;;;;4.63;3.73;;;;;;;;;;5027757;28;20630;-85
2021/05/03 19:25:00;;;;;;;4.30;3.70;;;;;;;;;;5030406;28;20220;-85
2021/05/03 19:28:05;;;;;;;4.00;3.50;;;;;;;;;;5017520;28;20191;-85
2021/05/03 19:34:19;;;;;;;6.33;3.80;;;;;;;;;;5024814;28;20262;-85
2021/05/03 19:37:23;;;;;;;4.20;3.40;;;;;;;;;;4997155;28;20180;-85